createdAt,value
2023-02-04T00:03:23.954Z,6.10
2023-02-04T00:07:27.753Z,5.30
2023-02-04T00:11:29.266Z,5.03
2023-02-04T00:15:31.036Z,5.10
2023-02-04T00:19:32.521Z,6.50
2023-02-04T00:23:33.834Z,5.13
2023-02-04T00:27:35.183Z,5.30
2023-02-04T00:31:36.770Z,5.07
2023-02-04T00:35:38.220Z,4.90
2023-02-04T00:39:39.632Z,6.17
2023-02-04T00:43:40.949Z,5.07
2023-02-04T00:47:44.699Z,6.00
2023-02-04T00:51:46.635Z,5.43
2023-02-04T00:55:48.119Z,6.57
2023-02-04T00:59:52.017Z,7.20
2023-02-04T01:03:53.358Z,4.27
2023-02-04T01:07:54.724Z,5.67
2023-02-04T01:11:58.850Z,5.10
2023-02-04T01:16:00.482Z,4.60
2023-02-04T01:20:04.767Z,5.67
2023-02-04T01:24:06.498Z,4.57
2023-02-04T01:28:10.438Z,5.77
2023-02-04T01:32:12.018Z,4.43
2023-02-04T01:36:15.592Z,5.53
2023-02-04T01:40:17.131Z,5.27
2023-02-04T01:44:18.501Z,5.93
2023-02-04T01:48:22.444Z,5.67
2023-02-04T01:52:24.445Z,5.30
2023-02-04T01:56:31.442Z,6.27
2023-02-04T02:00:33.685Z,6.20
2023-02-04T02:04:35.215Z,6.10
2023-02-04T02:08:40.531Z,6.50
2023-02-04T02:12:43.035Z,5.17
2023-02-04T02:16:44.517Z,6.17
2023-02-04T02:20:46.462Z,5.30
2023-02-04T02:24:47.816Z,4.97
2023-02-04T02:28:52.951Z,5.30
2023-02-04T02:32:56.203Z,5.83
2023-02-04T02:36:59.367Z,4.77
2023-02-04T02:41:03.207Z,4.87
2023-02-04T02:45:18.163Z,6.27
2023-02-04T02:49:20.489Z,6.83
2023-02-04T02:53:22.128Z,6.20
2023-02-04T02:57:23.933Z,4.93
2023-02-04T03:01:25.539Z,4.90
2023-02-04T03:05:30.320Z,5.23
2023-02-04T03:09:33.606Z,4.50
2023-02-04T03:13:37.088Z,5.40
2023-02-04T03:17:39.410Z,5.60
2023-02-04T03:21:41.696Z,4.53
2023-02-04T03:25:44.049Z,8.57
2023-02-04T03:29:45.972Z,4.37
2023-02-04T03:33:47.369Z,4.73
2023-02-04T03:37:48.916Z,4.33
2023-02-04T03:41:50.209Z,4.63
2023-02-04T03:45:51.706Z,4.80
2023-02-04T03:49:53.090Z,4.93
2023-02-04T03:53:54.430Z,4.63
2023-02-04T03:57:55.826Z,4.27
2023-02-04T04:01:58.320Z,4.37
2023-02-04T04:05:59.651Z,4.50
2023-02-04T04:10:00.990Z,4.20
2023-02-04T04:14:02.409Z,4.93
2023-02-04T04:18:04.651Z,4.70
2023-02-04T04:22:06.082Z,4.37
2023-02-04T04:26:07.416Z,4.40
2023-02-04T04:30:09.521Z,3.80
2023-02-04T04:34:11.482Z,4.73
2023-02-04T04:38:12.937Z,4.03
2023-02-04T04:42:14.435Z,4.63
2023-02-04T04:46:15.909Z,4.90
2023-02-04T04:50:17.436Z,4.80
2023-02-04T04:54:18.763Z,4.33
2023-02-04T04:58:20.094Z,5.00
2023-02-04T05:02:21.431Z,4.60
2023-02-04T05:06:25.368Z,4.60
2023-02-04T05:10:26.714Z,4.60
2023-02-04T05:14:28.400Z,4.70
2023-02-04T05:18:39.180Z,4.67
2023-02-04T05:22:40.517Z,4.57
2023-02-04T05:26:41.826Z,3.80
2023-02-04T05:30:43.227Z,4.77
2023-02-04T05:34:44.639Z,4.57
2023-02-04T05:38:46.106Z,4.97
2023-02-04T05:42:47.780Z,4.70
2023-02-04T05:46:49.189Z,4.10
2023-02-04T05:50:50.439Z,4.97
2023-02-04T05:54:51.768Z,4.93
2023-02-04T05:58:53.157Z,6.10
2023-02-04T06:02:54.673Z,5.20
2023-02-04T06:06:56.076Z,4.67
2023-02-04T06:10:57.354Z,4.43
2023-02-04T06:14:58.697Z,4.93
2023-02-04T06:19:00.070Z,4.43
2023-02-04T06:23:01.463Z,4.87
2023-02-04T06:27:02.886Z,4.73
2023-02-04T06:31:04.594Z,6.27
2023-02-04T06:35:06.287Z,4.33
2023-02-04T06:39:07.571Z,4.40
2023-02-04T06:43:09.109Z,5.53
2023-02-04T06:47:10.494Z,5.23
2023-02-04T06:51:11.847Z,5.90
2023-02-04T06:55:14.532Z,5.07
2023-02-04T06:59:15.837Z,4.53
2023-02-04T07:03:17.137Z,5.20
2023-02-04T07:07:18.478Z,4.43
2023-02-04T07:11:19.857Z,5.27
2023-02-04T07:15:21.248Z,5.60
2023-02-04T07:19:22.647Z,4.93
2023-02-04T07:23:25.279Z,5.90
2023-02-04T07:27:26.706Z,6.63
2023-02-04T07:31:28.153Z,5.40
2023-02-04T07:35:29.621Z,6.03
2023-02-04T07:39:30.981Z,4.73
2023-02-04T07:43:32.396Z,5.97
2023-02-04T07:47:33.881Z,6.43
2023-02-04T07:51:35.324Z,6.20
2023-02-04T07:55:36.674Z,5.57
2023-02-04T07:59:38.023Z,5.80
2023-02-04T08:03:41.636Z,5.07
2023-02-04T08:07:43.145Z,6.33
2023-02-04T08:11:44.492Z,5.90
2023-02-04T08:15:45.850Z,5.63
2023-02-04T08:19:47.268Z,5.63
2023-02-04T08:23:48.669Z,5.20
2023-02-04T08:27:50.012Z,5.40
2023-02-04T08:31:52.020Z,6.10
2023-02-04T08:35:53.383Z,4.80
2023-02-04T08:39:55.901Z,6.60
2023-02-04T08:43:57.313Z,5.60
2023-02-04T08:47:58.632Z,6.60
2023-02-04T08:52:00.063Z,6.07
2023-02-04T08:56:01.573Z,6.30
2023-02-04T09:00:03.585Z,6.67
2023-02-04T09:04:05.016Z,5.90
2023-02-04T09:08:06.439Z,6.20
2023-02-04T09:12:07.979Z,6.53
2023-02-04T09:16:09.430Z,6.40
2023-02-04T09:20:11.716Z,6.10
2023-02-04T09:24:13.016Z,6.90
2023-02-04T09:28:16.984Z,6.13
2023-02-04T09:32:18.483Z,7.07
2023-02-04T09:36:20.499Z,6.67
2023-02-04T09:40:22.302Z,6.00
2023-02-04T09:44:27.812Z,6.07
2023-02-04T09:48:29.306Z,6.93
2023-02-04T09:52:30.734Z,6.10
2023-02-04T09:56:32.293Z,7.37
2023-02-04T10:00:34.898Z,6.70
2023-02-04T10:04:37.078Z,7.50
2023-02-04T10:08:40.493Z,7.10
2023-02-04T10:12:41.940Z,10.07
2023-02-04T10:16:45.724Z,8.10
2023-02-04T10:20:47.307Z,7.80
2023-02-04T10:24:48.620Z,9.97
2023-02-04T10:28:49.943Z,9.50
2023-02-04T10:32:51.806Z,11.60
2023-02-04T10:36:57.754Z,11.47
2023-02-04T10:41:04.192Z,12.37
2023-02-04T10:45:05.927Z,10.67
2023-02-04T10:49:23.077Z,12.10
2023-02-04T10:53:44.479Z,11.03
2023-02-04T10:57:48.571Z,12.13
2023-02-04T11:01:49.987Z,12.17
2023-02-04T11:05:52.286Z,10.43
2023-02-04T11:09:53.928Z,10.07
2023-02-04T11:13:55.711Z,10.57
2023-02-04T11:18:05.881Z,11.10
2023-02-04T11:22:21.669Z,12.07
2023-02-04T11:26:35.336Z,10.93
2023-02-04T11:30:36.861Z,9.33
2023-02-04T11:34:48.282Z,9.67
2023-02-04T11:38:50.297Z,9.70
2023-02-04T11:42:57.798Z,10.00
2023-02-04T11:47:01.826Z,10.03
2023-02-04T11:51:10.104Z,10.27
2023-02-04T11:55:13.621Z,8.37
2023-02-04T11:59:17.554Z,8.23
2023-02-04T12:03:23.960Z,8.80
2023-02-04T12:07:28.595Z,9.80
2023-02-04T12:11:30.648Z,9.70
2023-02-04T12:15:37.381Z,9.30
2023-02-04T12:19:38.807Z,9.90
2023-02-04T12:23:42.360Z,8.93
2023-02-04T12:27:43.776Z,8.60
2023-02-04T12:31:45.234Z,8.30
2023-02-04T12:35:46.758Z,9.40
2023-02-04T12:39:48.088Z,8.93
2023-02-04T12:43:50.489Z,8.10
2023-02-04T12:47:51.916Z,9.20
2023-02-04T12:51:53.288Z,9.60
2023-02-04T12:55:56.072Z,8.93
2023-02-04T12:59:59.602Z,9.33
2023-02-04T13:04:01.014Z,10.63
2023-02-04T13:08:02.431Z,8.70
2023-02-04T13:12:03.934Z,8.30
2023-02-04T13:16:05.411Z,7.17
2023-02-04T13:20:07.343Z,7.60
2023-02-04T13:24:08.687Z,7.77
2023-02-04T13:28:10.158Z,7.63
2023-02-04T13:32:11.546Z,6.97
2023-02-04T13:36:12.888Z,7.50
2023-02-04T13:40:14.188Z,6.23
2023-02-04T13:44:15.770Z,5.90
2023-02-04T13:48:17.212Z,4.77
2023-02-04T13:52:18.990Z,5.27
2023-02-04T13:56:20.334Z,5.23
2023-02-04T14:00:21.831Z,5.70
2023-02-04T14:04:23.264Z,5.40
2023-02-04T14:08:24.650Z,6.13
2023-02-04T14:12:25.948Z,6.13
2023-02-04T14:16:27.411Z,6.87
2023-02-04T14:20:28.787Z,5.83
2023-02-04T14:24:30.144Z,6.47
2023-02-04T14:28:31.460Z,6.70
2023-02-04T14:32:32.773Z,6.60
2023-02-04T14:36:34.082Z,5.60
2023-02-04T14:40:35.514Z,5.70
2023-02-04T14:44:36.881Z,5.50
2023-02-04T14:48:38.205Z,6.60
2023-02-04T14:52:39.696Z,6.60
2023-02-04T14:56:41.046Z,6.37
2023-02-04T15:00:42.302Z,6.83
2023-02-04T15:04:44.496Z,6.00
2023-02-04T15:08:45.896Z,5.80
2023-02-04T15:12:47.281Z,6.00
2023-02-04T15:16:49.129Z,5.37
2023-02-04T15:20:50.608Z,6.20
2023-02-04T15:24:51.877Z,9.13
2023-02-04T15:28:55.541Z,7.10
2023-02-04T15:32:56.879Z,5.77
2023-02-04T15:36:58.209Z,8.00
2023-02-04T15:40:59.560Z,5.63
2023-02-04T15:45:00.857Z,6.17
2023-02-04T15:49:02.573Z,4.13
2023-02-04T15:53:04.182Z,3.97
2023-02-04T15:57:05.640Z,4.83
2023-02-04T16:01:07.004Z,3.40
2023-02-04T16:05:08.464Z,3.57
2023-02-04T16:09:09.890Z,3.30
2023-02-04T16:13:11.259Z,4.17
2023-02-04T16:17:12.608Z,4.37
2023-02-04T16:21:14.038Z,4.27
2023-02-04T16:25:15.563Z,4.00
2023-02-04T16:29:17.328Z,4.77
2023-02-04T16:33:18.804Z,8.05
2023-02-04T16:37:20.116Z,6.83
2023-02-04T16:41:21.793Z,6.83
2023-02-04T16:45:24.297Z,6.67
2023-02-04T16:49:26.533Z,6.33
2023-02-04T16:53:27.851Z,6.70
2023-02-04T16:57:29.120Z,7.67
2023-02-04T17:01:31.072Z,6.83
2023-02-04T17:05:32.589Z,6.80
2023-02-04T17:09:34.171Z,7.70
2023-02-04T17:13:35.541Z,7.30
2023-02-04T17:17:37.597Z,6.93
2023-02-04T17:21:39.552Z,7.70
2023-02-04T17:25:40.862Z,8.03
2023-02-04T17:29:42.441Z,8.97
2023-02-04T17:33:43.777Z,8.57
2023-02-04T17:37:45.080Z,7.63
2023-02-04T17:41:46.639Z,7.37
2023-02-04T17:45:48.313Z,8.03
2023-02-04T17:49:49.645Z,9.10
2023-02-04T17:53:50.998Z,8.03
2023-02-04T17:57:52.376Z,8.17
2023-02-04T18:01:53.951Z,7.80
2023-02-04T18:05:56.849Z,7.70
2023-02-04T18:10:18.113Z,8.20
2023-02-04T18:14:28.641Z,7.87
2023-02-04T18:18:38.156Z,9.17
2023-02-04T18:22:39.606Z,8.50
2023-02-04T18:26:45.569Z,9.80
2023-02-04T18:30:50.825Z,8.37
2023-02-04T18:34:55.029Z,8.03
2023-02-04T18:38:56.507Z,10.73
2023-02-04T18:43:28.179Z,9.63
2023-02-04T18:47:31.603Z,9.50
2023-02-04T18:51:35.801Z,9.80
2023-02-04T18:55:39.312Z,9.97
2023-02-04T18:59:41.314Z,8.70
2023-02-04T19:03:49.897Z,10.67
2023-02-04T19:07:58.143Z,9.00
2023-02-04T19:12:19.378Z,9.20
2023-02-04T19:16:24.439Z,9.37
2023-02-04T19:20:25.842Z,9.60
2023-02-04T19:24:29.208Z,8.93
2023-02-04T19:28:37.695Z,9.33
2023-02-04T19:32:45.950Z,7.53
2023-02-04T19:36:47.225Z,7.60
2023-02-04T19:40:51.286Z,7.80
2023-02-04T19:44:52.955Z,8.27
2023-02-04T19:48:56.477Z,9.20
2023-02-04T19:53:13.111Z,8.97
2023-02-04T19:57:29.016Z,9.90
2023-02-04T20:01:32.275Z,10.97
2023-02-04T20:05:33.987Z,9.40
2023-02-04T20:09:35.495Z,10.13
2023-02-04T20:13:36.835Z,8.73
2023-02-04T20:17:45.890Z,10.00
2023-02-04T20:21:59.412Z,9.23
2023-02-04T20:26:01.611Z,9.20
2023-02-04T20:30:11.686Z,8.63
2023-02-04T20:34:19.427Z,10.03
2023-02-04T20:38:20.742Z,10.17
2023-02-04T20:42:32.839Z,9.97
2023-02-04T20:46:34.416Z,10.07
2023-02-04T20:50:41.537Z,9.73
2023-02-04T20:54:42.921Z,9.37
2023-02-04T20:58:46.035Z,8.60
2023-02-04T21:02:47.443Z,8.10
2023-02-04T21:06:51.535Z,7.70
2023-02-04T21:10:53.501Z,9.17
2023-02-04T21:14:54.755Z,8.80
2023-02-04T21:18:56.144Z,10.73
2023-02-04T21:22:57.499Z,9.93
2023-02-04T21:26:59.061Z,15.73
2023-02-04T21:31:01.005Z,15.37
2023-02-04T21:35:02.410Z,13.67
2023-02-04T21:39:03.898Z,13.30
2023-02-04T21:43:07.985Z,14.03
2023-02-04T21:47:09.403Z,14.13
2023-02-04T21:51:12.225Z,14.73
2023-02-04T21:55:15.858Z,15.00
2023-02-04T21:59:18.649Z,16.10
2023-02-04T22:03:19.946Z,15.13
2023-02-04T22:07:21.434Z,15.30
2023-02-04T22:11:22.764Z,15.60
2023-02-04T22:15:24.301Z,15.30
2023-02-04T22:19:25.699Z,16.67
2023-02-04T22:23:27.122Z,16.13
2023-02-04T22:27:28.502Z,15.40
2023-02-04T22:31:29.860Z,16.90
2023-02-04T22:35:34.983Z,16.73
2023-02-04T22:39:36.677Z,17.33
2023-02-04T22:43:38.038Z,17.37
2023-02-04T22:47:39.488Z,16.87
2023-02-04T22:51:40.778Z,18.47
2023-02-04T22:55:42.096Z,18.33
2023-02-04T22:59:43.390Z,19.57
2023-02-04T23:03:44.810Z,22.43
2023-02-04T23:07:46.245Z,18.43
2023-02-04T23:11:48.143Z,20.03
2023-02-04T23:15:49.613Z,19.20
2023-02-04T23:19:50.928Z,20.67
2023-02-04T23:23:52.508Z,19.77
2023-02-04T23:27:53.818Z,20.67
2023-02-04T23:31:55.855Z,25.43
2023-02-04T23:35:57.505Z,19.10
2023-02-04T23:39:59.507Z,22.03
2023-02-04T23:44:00.809Z,21.23
2023-02-04T23:48:02.209Z,21.90
2023-02-04T23:52:03.763Z,21.20
2023-02-04T23:56:05.328Z,21.57
